createdAt,value
2024-02-29T07:32:51.377Z,12.10
2024-02-29T07:35:23.283Z,9.70
2024-02-29T07:37:55.311Z,13.00
2024-02-29T07:40:27.405Z,14.70
2024-02-29T07:43:01.696Z,14.30
2024-02-29T07:45:33.942Z,14.20
2024-02-29T07:48:06.975Z,13.80
2024-02-29T07:50:38.992Z,14.10
2024-02-29T07:53:11.298Z,9.50
2024-02-29T07:55:43.343Z,14.40
2024-02-29T07:58:15.403Z,9.40
2024-02-29T08:00:47.624Z,12.90
2024-02-29T08:03:19.476Z,14.50
2024-02-29T08:05:52.005Z,13.90
2024-02-29T08:08:24.396Z,14.90
2024-02-29T08:10:56.297Z,14.90
2024-02-29T08:13:28.093Z,15.70
2024-02-29T08:16:00.363Z,14.20
2024-02-29T08:18:32.360Z,14.30
2024-02-29T08:21:05.333Z,13.90
2024-02-29T08:23:37.829Z,13.10
2024-02-29T08:26:13.918Z,13.50
2024-02-29T08:28:46.669Z,14.00
2024-02-29T08:33:49.557Z,13.60
2024-02-29T08:36:22.582Z,14.30
2024-02-29T08:41:25.641Z,12.30
2024-02-29T08:43:57.751Z,10.00
2024-02-29T08:46:29.869Z,9.10
2024-02-29T08:49:03.930Z,14.50
2024-02-29T08:51:36.999Z,14.00
2024-02-29T08:54:10.804Z,12.10
2024-02-29T08:56:43.072Z,13.70
2024-02-29T08:59:17.042Z,12.90
2024-02-29T09:01:50.587Z,13.10
2024-02-29T09:04:23.922Z,12.10
2024-02-29T09:06:56.077Z,13.20
2024-02-29T09:09:29.089Z,12.60
2024-02-29T09:12:01.107Z,12.70
2024-02-29T09:14:33.121Z,10.50
2024-02-29T09:17:05.584Z,13.90
2024-02-29T09:19:37.854Z,13.20
2024-02-29T09:22:10.264Z,13.70
2024-02-29T09:24:42.256Z,13.90
2024-02-29T09:27:15.004Z,14.10
2024-02-29T09:29:46.945Z,13.20
2024-02-29T09:32:19.351Z,11.20
2024-02-29T09:34:52.443Z,13.00
2024-02-29T09:37:25.139Z,13.80
2024-02-29T09:39:57.132Z,16.80
2024-02-29T09:42:30.565Z,15.40
2024-02-29T09:45:03.453Z,14.80
2024-02-29T09:47:37.380Z,14.20
2024-02-29T09:50:12.414Z,16.50
2024-02-29T09:52:47.656Z,16.10
2024-02-29T09:55:26.579Z,14.80
2024-02-29T09:58:01.035Z,15.00
2024-02-29T10:00:33.539Z,16.60
2024-02-29T10:03:07.107Z,17.10
2024-02-29T10:05:39.389Z,15.80
2024-02-29T10:08:11.300Z,11.20
2024-02-29T10:10:43.355Z,19.10
2024-02-29T10:13:15.250Z,16.80
2024-02-29T10:15:51.922Z,17.60
2024-02-29T10:18:23.933Z,17.90
2024-02-29T10:20:55.963Z,18.20
2024-02-29T10:23:31.340Z,16.90
2024-02-29T10:26:03.435Z,16.60
2024-02-29T10:28:35.549Z,16.70
2024-02-29T10:31:08.460Z,11.90
2024-02-29T10:33:49.507Z,17.60
2024-02-29T10:36:22.411Z,18.20
2024-02-29T10:38:56.307Z,18.30
2024-02-29T10:41:32.401Z,16.80
2024-02-29T10:44:05.822Z,18.00
2024-02-29T10:46:39.509Z,18.50
2024-02-29T10:49:18.415Z,18.60
2024-02-29T10:51:56.305Z,19.10
2024-02-29T10:54:36.868Z,19.90
2024-02-29T10:57:17.143Z,17.90
2024-02-29T10:59:54.407Z,18.30
2024-02-29T11:02:27.492Z,18.10
2024-02-29T11:05:00.392Z,18.90
2024-02-29T11:07:32.604Z,19.10
2024-02-29T11:10:07.053Z,15.40
2024-02-29T11:12:43.677Z,20.20
2024-02-29T11:15:15.713Z,19.50
2024-02-29T11:17:50.560Z,18.60
2024-02-29T11:20:25.887Z,19.70
2024-02-29T11:23:11.230Z,20.20
2024-02-29T11:25:45.927Z,21.60
2024-02-29T11:28:19.097Z,22.50
2024-02-29T11:30:53.124Z,21.30
2024-02-29T11:33:25.567Z,22.50
2024-02-29T11:35:58.580Z,21.50
2024-02-29T11:38:36.502Z,22.30
2024-02-29T11:41:20.717Z,22.50
2024-02-29T11:43:53.341Z,21.20
2024-02-29T11:46:25.429Z,21.90
2024-02-29T11:48:57.936Z,15.10
2024-02-29T11:54:02.052Z,22.90
2024-02-29T11:56:34.153Z,22.50
2024-02-29T11:59:10.348Z,20.80
2024-02-29T12:01:45.019Z,21.80
2024-02-29T12:04:17.725Z,22.40
2024-02-29T12:06:49.748Z,22.10
2024-02-29T12:09:22.338Z,23.10
2024-02-29T12:11:54.648Z,22.70
2024-02-29T12:14:27.075Z,23.40
2024-02-29T12:16:59.348Z,23.30
2024-02-29T12:19:31.918Z,21.80
2024-02-29T12:24:38.096Z,22.10
2024-02-29T12:27:11.180Z,23.30
2024-02-29T12:29:43.769Z,24.40
2024-02-29T12:32:18.443Z,23.70
2024-02-29T12:34:52.998Z,22.50
2024-02-29T12:37:26.089Z,23.30
2024-02-29T12:40:00.546Z,23.20
2024-02-29T12:42:34.607Z,25.50
2024-02-29T12:45:10.036Z,23.60
2024-02-29T12:47:42.143Z,22.50
2024-02-29T12:50:14.315Z,23.50
2024-02-29T12:52:48.841Z,25.60
2024-02-29T12:55:21.101Z,24.80
2024-02-29T12:57:53.390Z,25.70
2024-02-29T13:00:26.812Z,27.20
2024-02-29T13:02:58.871Z,26.50
2024-02-29T13:05:31.846Z,24.50
2024-02-29T13:08:04.996Z,27.80
2024-02-29T13:10:36.922Z,29.40
2024-02-29T13:13:10.621Z,24.00
2024-02-29T13:15:43.434Z,28.50
2024-02-29T13:18:15.463Z,27.50
2024-02-29T13:20:47.375Z,27.10
2024-02-29T13:23:19.371Z,20.00
2024-02-29T13:25:52.039Z,25.30
2024-02-29T13:28:24.661Z,25.10
2024-02-29T13:30:56.686Z,26.10
2024-02-29T13:33:30.987Z,17.90
2024-02-29T13:36:03.179Z,25.00
2024-02-29T13:38:36.511Z,27.50
2024-02-29T13:41:09.117Z,26.10
2024-02-29T13:46:14.003Z,24.40
2024-02-29T13:48:48.411Z,27.00
2024-02-29T13:51:20.634Z,25.90
2024-02-29T13:53:53.502Z,25.90
2024-02-29T13:56:26.787Z,23.80
2024-02-29T13:58:59.215Z,23.60
2024-02-29T14:01:31.371Z,25.40
2024-02-29T14:04:03.508Z,24.50
2024-02-29T14:06:35.931Z,25.40
2024-02-29T14:09:08.375Z,24.70
2024-02-29T14:11:40.700Z,25.90
2024-02-29T14:14:12.867Z,27.20
2024-02-29T14:16:45.467Z,28.50
2024-02-29T14:19:17.497Z,27.00
2024-02-29T14:21:49.521Z,28.30
2024-02-29T14:24:21.673Z,27.50
2024-02-29T14:26:53.772Z,29.40
2024-02-29T14:29:25.745Z,30.00
2024-02-29T14:31:58.098Z,30.30
2024-02-29T14:34:30.042Z,32.50
2024-02-29T14:37:02.840Z,30.50
2024-02-29T14:39:34.904Z,31.80
2024-02-29T14:42:07.383Z,31.90
2024-02-29T14:44:39.377Z,29.70
2024-02-29T14:47:11.339Z,23.60
2024-02-29T14:49:45.474Z,22.80
2024-02-29T14:52:17.571Z,32.00
2024-02-29T14:54:49.597Z,29.50
2024-02-29T14:57:21.582Z,30.80
2024-02-29T14:59:54.276Z,29.50
2024-02-29T15:04:57.954Z,29.20
2024-02-29T15:07:30.085Z,29.60
2024-02-29T15:10:02.518Z,21.30
2024-02-29T15:15:05.859Z,27.30
2024-02-29T15:20:11.808Z,29.80
2024-02-29T15:22:45.260Z,32.40
2024-02-29T15:25:18.548Z,31.20
2024-02-29T15:27:55.193Z,31.70
2024-02-29T15:30:27.795Z,28.30
2024-02-29T15:32:59.708Z,31.50
2024-02-29T15:35:31.600Z,30.80
2024-02-29T15:38:03.629Z,29.40
2024-02-29T15:40:35.672Z,28.90
2024-02-29T15:45:38.761Z,30.70
2024-02-29T15:48:11.773Z,19.10
2024-02-29T15:50:46.706Z,29.20
2024-02-29T15:53:18.803Z,29.90
2024-02-29T15:55:51.927Z,21.90
2024-02-29T15:58:23.861Z,30.00
2024-02-29T16:00:55.901Z,33.10
2024-02-29T16:03:28.101Z,24.90
2024-02-29T16:06:00.256Z,32.60
2024-02-29T16:08:32.205Z,31.00
2024-02-29T16:11:04.964Z,32.50
2024-02-29T16:13:37.343Z,32.10
2024-02-29T16:16:09.919Z,30.70
2024-02-29T16:18:42.035Z,31.50
2024-02-29T16:21:14.230Z,29.60
2024-02-29T16:23:46.272Z,34.30
2024-02-29T16:26:18.311Z,22.00
2024-02-29T16:28:50.333Z,32.20
2024-02-29T16:31:22.242Z,21.80
2024-02-29T16:33:54.148Z,30.10
2024-02-29T16:36:26.083Z,30.00
2024-02-29T16:38:58.056Z,29.50
2024-02-29T16:41:30.429Z,30.20
2024-02-29T16:44:02.453Z,29.20
2024-02-29T16:46:34.450Z,29.80
2024-02-29T16:49:06.547Z,27.80
2024-02-29T16:51:38.446Z,22.00
2024-02-29T16:54:10.688Z,21.10
2024-02-29T16:56:46.152Z,27.20
2024-02-29T16:59:18.620Z,30.40
2024-02-29T17:01:50.676Z,28.70
2024-02-29T17:04:23.395Z,26.80
2024-02-29T17:09:26.321Z,28.20
2024-02-29T17:11:58.561Z,28.60
2024-02-29T17:14:30.866Z,30.60
2024-02-29T17:17:04.455Z,28.80
2024-02-29T17:19:36.343Z,30.70
2024-02-29T17:22:08.667Z,29.00
2024-02-29T17:24:40.965Z,29.90
2024-02-29T17:27:17.081Z,29.90
2024-02-29T17:29:49.772Z,28.60
2024-02-29T17:34:52.989Z,29.70
2024-02-29T17:37:29.318Z,29.90
2024-02-29T17:40:03.264Z,29.20
2024-02-29T17:42:35.578Z,29.30
2024-02-29T17:45:11.116Z,29.50
2024-02-29T17:47:43.686Z,31.40
2024-02-29T17:50:17.819Z,29.50
2024-02-29T17:52:50.401Z,30.30
2024-02-29T17:55:22.805Z,30.20
2024-02-29T17:57:55.444Z,28.70
2024-02-29T18:00:27.933Z,29.40
2024-02-29T18:03:02.110Z,29.40
2024-02-29T18:05:34.640Z,30.60
2024-02-29T18:08:08.412Z,28.40
2024-02-29T18:10:40.751Z,30.30
2024-02-29T18:13:13.024Z,32.60
2024-02-29T18:15:45.372Z,33.40
2024-02-29T18:18:18.099Z,33.00
2024-02-29T18:20:50.496Z,33.00
2024-02-29T18:23:23.904Z,32.80
2024-02-29T18:25:57.267Z,32.10
2024-02-29T18:28:29.666Z,33.80
2024-02-29T18:31:03.807Z,32.90
2024-02-29T18:33:37.058Z,33.90
2024-02-29T18:36:11.087Z,33.60
2024-02-29T18:38:43.230Z,36.40
2024-02-29T18:41:15.437Z,34.00
2024-02-29T18:43:47.893Z,35.60
2024-02-29T18:46:20.287Z,36.60
2024-02-29T18:48:52.485Z,30.30
2024-02-29T18:51:24.732Z,35.30
2024-02-29T18:53:57.029Z,36.80
2024-02-29T18:56:29.222Z,34.00
2024-02-29T18:59:01.367Z,35.30
2024-02-29T19:01:33.651Z,33.00
2024-02-29T19:04:06.397Z,34.80
2024-02-29T19:06:38.450Z,36.20
2024-02-29T19:09:11.268Z,33.20
2024-02-29T19:11:43.537Z,33.40
2024-02-29T19:14:15.991Z,36.00
2024-02-29T19:16:48.266Z,36.80
2024-02-29T19:19:21.412Z,36.40
2024-02-29T19:21:53.483Z,37.50
2024-02-29T19:24:25.504Z,33.30
2024-02-29T19:26:57.471Z,37.10
2024-02-29T19:29:30.070Z,35.50
2024-02-29T19:32:02.022Z,34.40
2024-02-29T19:34:34.180Z,35.50
2024-02-29T19:37:06.676Z,33.00
2024-02-29T19:39:41.073Z,36.50
2024-02-29T19:42:13.522Z,35.90
2024-02-29T19:44:45.957Z,35.10
2024-02-29T19:47:21.858Z,37.30
2024-02-29T19:49:53.867Z,37.40
2024-02-29T19:52:26.322Z,36.80
2024-02-29T19:55:02.893Z,36.40
2024-02-29T19:57:40.981Z,39.30
2024-02-29T20:00:17.944Z,37.50
2024-02-29T20:02:51.499Z,38.00
2024-02-29T20:05:23.833Z,36.60
2024-02-29T20:07:55.876Z,38.80
2024-02-29T20:10:28.028Z,36.70
2024-02-29T20:13:00.810Z,38.80
2024-02-29T20:18:04.525Z,36.20
2024-02-29T20:20:36.668Z,38.30
2024-02-29T20:23:09.152Z,38.00
2024-02-29T20:28:11.762Z,37.40
2024-02-29T20:30:43.760Z,39.00
2024-02-29T20:33:16.665Z,37.90
2024-02-29T20:35:49.266Z,39.60
2024-02-29T20:38:21.066Z,40.90
2024-02-29T20:40:52.934Z,28.10
2024-02-29T20:43:25.123Z,39.90
2024-02-29T20:45:57.257Z,39.00
2024-02-29T20:48:29.428Z,40.90
2024-02-29T20:51:01.593Z,40.20
2024-02-29T20:53:33.812Z,39.20
2024-02-29T20:56:06.437Z,40.90
2024-02-29T20:58:39.008Z,39.80
2024-02-29T21:01:10.897Z,37.80
2024-02-29T21:03:42.984Z,30.70
2024-02-29T21:06:14.958Z,42.60
2024-02-29T21:08:46.871Z,41.80
2024-02-29T21:11:19.647Z,43.00
2024-02-29T21:16:22.360Z,40.50
2024-02-29T21:18:54.548Z,41.90
2024-02-29T21:21:26.780Z,41.90
2024-02-29T21:23:58.967Z,42.00
2024-02-29T21:26:31.254Z,41.40
2024-02-29T21:31:36.454Z,40.50
2024-02-29T21:34:08.548Z,42.40
2024-02-29T21:36:40.657Z,42.20
2024-02-29T21:39:12.844Z,42.00
2024-02-29T21:41:44.978Z,41.00
2024-02-29T21:44:17.073Z,35.60
2024-02-29T21:46:51.174Z,36.20
2024-02-29T21:49:24.928Z,39.40
2024-02-29T21:51:57.822Z,40.30
2024-02-29T21:54:31.434Z,37.90
2024-02-29T21:57:03.582Z,40.20
2024-02-29T21:59:35.757Z,39.00
2024-02-29T22:02:08.461Z,42.50
2024-02-29T22:04:41.371Z,39.10
2024-02-29T22:09:44.295Z,39.70
2024-02-29T22:12:16.168Z,41.60
2024-02-29T22:14:47.929Z,40.40
2024-02-29T22:17:19.811Z,41.10
2024-02-29T22:19:51.879Z,41.00
2024-02-29T22:22:23.947Z,40.90
2024-02-29T22:24:56.055Z,40.10
2024-02-29T22:27:27.987Z,40.40
2024-02-29T22:29:59.822Z,41.30
2024-02-29T22:32:31.862Z,30.20
2024-02-29T22:35:07.730Z,42.30
2024-02-29T22:37:39.806Z,42.60
2024-02-29T22:40:13.769Z,43.10
2024-02-29T22:42:46.662Z,42.30
2024-02-29T22:45:18.547Z,42.20
2024-02-29T22:47:50.704Z,41.70
2024-02-29T22:50:22.577Z,43.00
2024-02-29T22:52:54.529Z,42.30
2024-02-29T22:55:26.459Z,43.60
2024-02-29T22:57:58.436Z,42.40
2024-02-29T23:00:33.863Z,42.60
2024-02-29T23:03:06.214Z,43.10
2024-02-29T23:05:38.885Z,42.10
2024-02-29T23:10:43.577Z,43.10
2024-02-29T23:15:46.374Z,42.40
2024-02-29T23:18:18.381Z,44.60
2024-02-29T23:20:51.250Z,44.10
2024-02-29T23:23:23.129Z,44.00
2024-02-29T23:25:55.109Z,44.00
2024-02-29T23:28:27.554Z,46.60
2024-02-29T23:30:59.600Z,45.80
2024-02-29T23:33:31.712Z,45.50
2024-02-29T23:36:04.597Z,44.30
2024-02-29T23:41:09.130Z,45.70
2024-02-29T23:43:41.071Z,47.00
2024-02-29T23:46:12.940Z,46.90
2024-02-29T23:48:44.807Z,34.20
2024-02-29T23:51:17.650Z,49.00
2024-02-29T23:53:50.193Z,45.60
2024-02-29T23:56:22.129Z,45.40
2024-02-29T23:58:54.085Z,48.00
